Stations météo

Publicité
Bourg-St-Maurice, France (7497): Température de l'air & dewpoint: 25.05.2020 05:00:00 - 31.05.2020 05:00:00 (CEST)Bourg-St-Maurice, France (7497): Température de l'air -20cm & Température de l'air -100cm: 25.05.2020 05:00:00 - 31.05.2020 05:00:00 (CEST)Bourg-St-Maurice, France (7497): Vitesse du vent & gusts: 25.05.2020 05:00:00 - 31.05.2020 05:00:00 (CEST)Bourg-St-Maurice, France (7497): Direction du vent: 25.05.2020 05:00:00 - 31.05.2020 05:00:00 (CEST)Bourg-St-Maurice, France (7497): Ensoleillement: 25.05.2020 05:00:00 - 31.05.2020 05:00:00 (CEST)Bourg-St-Maurice, France (7497): Quantités de précipitations: 25.05.2020 05:00:00 - 31.05.2020 05:00:00 (CEST)
Date & Time tt [°C] td [°C] tt -20cm [°C] tt -100cm [°C] ff [km/h] ff [knt] fx [km/h] fx [knt] dd sd [min] rr [mm]
31.05.2020 05:00:00 - - - - - - - - - - -
31.05.2020 04:00:00 11,2 6,7 21,3 17,2 0 0 3 2 N 0 0,0
31.05.2020 03:00:00 11,6 6,5 21,5 17,2 2 1 4 2 W 0 0,0
31.05.2020 02:00:00 12,4 6,4 21,6 17,2 0 0 7 4 N 0 0,0
31.05.2020 01:00:00 13,0 6,8 21,7 17,2 3 1 4 2 N 0 0,0
31.05.2020 00:00:00 13,3 6,4 21,9 17,2 0 0 11 6 N 0 0,0
30.05.2020 23:00:00 14,3 5,4 21,9 17,1 6 3 13 7 WNW 0 0,0
30.05.2020 22:00:00 15,6 6,0 22,0 17,2 3 1 11 6 WSW 0 0,0
30.05.2020 21:00:00 17,1 5,4 22,1 17,1 4 2 19 10 W 7 0,0
30.05.2020 20:00:00 18,7 5,2 22,0 17,1 6 3 14 8 E 5 0,0
30.05.2020 19:00:00 19,3 4,6 22,0 17,1 6 3 20 11 S 11 0,0
30.05.2020 18:00:00 19,7 3,8 21,9 17,1 12 7 26 14 NNW 1 0,0
30.05.2020 17:00:00 20,9 4,9 21,6 17,1 10 6 38 21 NE 8 0,0
30.05.2020 16:00:00 21,1 4,6 21,4 17,1 8 4 26 14 SSW 30 0,0
30.05.2020 15:00:00 22,3 3,9 21,0 17,1 9 5 25 14 SSE 44 0,0
30.05.2020 14:00:00 21,2 5,1 20,7 17,1 11 6 26 14 S 44 0,0
30.05.2020 13:00:00 21,2 4,3 20,4 17,1 9 5 19 11 SSE 58 0,0
30.05.2020 12:00:00 19,5 6,6 20,3 17,1 10 5 20 11 S 37 0,0
30.05.2020 11:00:00 18,2 6,4 20,3 17,1 6 3 13 7 S 56 0,0
30.05.2020 10:00:00 15,7 5,0 20,4 17,1 5 3 9 5 SSE 60 0,0
30.05.2020 09:00:00 13,1 6,2 20,6 17,0 3 2 7 4 ENE 43 0,0
30.05.2020 08:00:00 9,8 6,0 20,7 17,1 0 0 4 2 N 13 0,0
30.05.2020 07:00:00 8,7 5,4 20,9 17,1 0 0 6 4 N 5 0,0
30.05.2020 06:00:00 8,8 5,0 21,1 17,0 3 2 6 3 W 0 0,0
30.05.2020 05:00:00 9,6 5,2 21,3 17,0 0 0 6 3 N 0 0,0
30.05.2020 04:00:00 10,3 5,9 21,4 17,0 2 1 7 4 SW 0 0,0
30.05.2020 03:00:00 11,5 5,6 21,6 17,1 3 2 8 4 WNW 0 0,0
30.05.2020 02:00:00 12,2 5,6 21,7 17,0 3 2 9 5 W 0 0,0
30.05.2020 01:00:00 12,7 5,1 21,9 17,0 4 2 9 5 W 0 0,0
30.05.2020 00:00:00 14,6 5,4 22,0 17,0 5 3 14 8 W 0 0,0
29.05.2020 23:00:00 16,1 4,5 22,1 17,0 2 1 19 10 NW 0 0,0
29.05.2020 22:00:00 18,0 3,8 22,1 17,0 9 5 26 14 E 0 0,0
29.05.2020 21:00:00 19,0 5,1 22,2 17,0 12 6 25 14 ENE 2 0,0
29.05.2020 20:00:00 19,6 7,3 22,2 17,0 4 2 33 18 WSW 1 0,0
29.05.2020 19:00:00 21,1 5,0 22,1 17,0 9 5 34 19 NNW 21 0,0
29.05.2020 18:00:00 22,6 5,1 21,9 17,0 14 8 35 19 NNW 60 0,0
29.05.2020 17:00:00 23,3 4,3 21,7 17,0 10 5 24 13 NW 60 0,0
29.05.2020 16:00:00 22,5 5,0 21,4 17,0 5 3 26 14 WSW 19 0,0
29.05.2020 15:00:00 23,7 4,6 21,0 17,0 9 5 25 14 S 49 0,0
29.05.2020 14:00:00 23,8 3,7 20,6 16,9 8 4 19 10 S 60 0,0
29.05.2020 13:00:00 22,8 5,2 20,3 16,9 9 5 20 11 S 60 0,0
29.05.2020 12:00:00 21,2 5,9 20,2 16,9 8 4 17 9 SSE 60 0,0
29.05.2020 11:00:00 19,6 6,3 20,2 16,9 5 3 10 5 S 60 0,0
29.05.2020 10:00:00 16,6 5,5 20,2 16,9 2 1 7 4 S 60 0,0
29.05.2020 09:00:00 14,3 5,6 20,3 16,9 5 3 8 4 E 60 0,0
29.05.2020 08:00:00 12,2 6,2 20,5 16,9 5 3 8 5 ENE 60 0,0
29.05.2020 07:00:00 8,5 5,8 20,8 16,9 0 0 4 2 N 6 0,0
29.05.2020 06:00:00 8,5 5,6 20,9 16,9 3 1 4 2 NNE 0 0,0
29.05.2020 05:00:00 9,1 5,5 21,2 16,9 2 1 5 3 W 0 0,0
29.05.2020 04:00:00 9,8 5,8 21,3 16,9 0 0 3 2 N 0 0,0
29.05.2020 03:00:00 10,6 5,8 21,5 16,9 0 0 3 2 N 0 0,0
29.05.2020 02:00:00 11,6 5,9 21,7 16,9 0 0 5 3 N 0 0,0
29.05.2020 01:00:00 12,3 5,7 21,9 16,9 3 1 6 4 N 0 0,0
29.05.2020 00:00:00 13,4 5,8 22,0 16,9 3 1 6 3 N 0 0,0
28.05.2020 23:00:00 14,7 5,7 22,1 16,9 5 3 16 9 W 0 0,0
28.05.2020 22:00:00 16,5 4,2 22,2 16,9 8 4 14 7 WNW 0 0,0
28.05.2020 21:00:00 18,2 5,1 22,2 16,8 5 3 13 7 WSW 0 0,0
28.05.2020 20:00:00 20,3 5,1 22,2 16,9 0 0 19 10 N 29 0,0
28.05.2020 19:00:00 22,4 4,0 22,1 16,8 13 7 37 20 N 60 0,0
28.05.2020 18:00:00 23,6 5,9 21,8 16,8 12 7 36 19 E 55 0,0
28.05.2020 17:00:00 24,5 4,3 21,6 16,8 8 5 32 17 N 58 0,0
28.05.2020 16:00:00 24,9 3,5 21,2 16,8 8 5 27 15 NNW 57 0,0
28.05.2020 15:00:00 24,7 5,5 20,8 16,8 8 5 23 13 S 60 0,0
28.05.2020 14:00:00 23,7 6,0 20,4 16,8 7 4 19 10 S 60 0,0
28.05.2020 13:00:00 22,7 4,2 20,1 16,8 8 4 19 10 S 60 0,0
28.05.2020 12:00:00 21,1 6,2 19,9 16,8 7 4 17 9 SSW 60 0,0
28.05.2020 11:00:00 18,9 6,7 19,9 16,8 5 3 9 5 S 60 0,0
28.05.2020 10:00:00 16,9 7,0 20,0 16,8 3 2 9 5 SSE 60 0,0
28.05.2020 09:00:00 14,3 7,1 20,1 16,8 3 2 6 3 SE 60 0,0
28.05.2020 08:00:00 12,0 6,5 20,2 16,7 4 2 5 3 NNE 45 0,0
28.05.2020 07:00:00 8,9 6,3 20,5 16,7 0 0 3 2 N 0 0,0
28.05.2020 06:00:00 9,0 5,9 20,7 16,8 2 1 4 2 NNW 0 0,0
28.05.2020 05:00:00 9,5 6,0 20,9 16,8 0 0 5 3 N 0 0,0
28.05.2020 04:00:00 10,2 5,8 21,1 16,8 3 1 6 3 N 0 0,0
28.05.2020 03:00:00 10,8 6,2 21,3 16,7 2 1 7 4 W 0 0,0
28.05.2020 02:00:00 11,9 6,6 21,4 16,7 0 0 5 3 N 0 0,0
28.05.2020 01:00:00 13,1 6,2 21,6 16,7 3 2 7 4 NW 0 0,0
28.05.2020 00:00:00 13,9 6,5 21,7 16,7 4 2 13 7 N 0 0,0
27.05.2020 23:00:00 15,5 6,5 21,9 16,7 7 4 15 8 NW 0 0,0
27.05.2020 22:00:00 16,4 6,5 22,0 16,7 8 5 18 10 WNW 0 0,0
27.05.2020 21:00:00 17,5 7,2 21,9 16,7 5 3 16 9 W 0 0,0
27.05.2020 20:00:00 19,3 9,2 21,9 16,7 4 2 16 9 WSW 16 0,0
27.05.2020 19:00:00 21,9 6,1 21,8 16,7 7 4 25 14 N 32 0,0
27.05.2020 18:00:00 23,4 7,9 21,7 16,7 5 3 29 16 E 48 0,0
27.05.2020 17:00:00 23,6 5,5 21,4 16,7 13 7 24 13 SE 54 0,0
27.05.2020 16:00:00 23,1 5,0 21,1 16,7 7 4 26 14 S 40 0,0
27.05.2020 15:00:00 24,0 6,7 20,8 16,7 6 3 24 13 SSE 35 0,0
27.05.2020 14:00:00 23,9 6,6 20,4 16,6 8 5 24 13 S 46 0,0
27.05.2020 13:00:00 22,2 8,0 20,1 16,6 7 4 17 9 S 47 0,0
27.05.2020 12:00:00 20,6 8,2 19,9 16,6 5 3 16 9 SW 55 0,0
27.05.2020 11:00:00 18,4 7,8 19,9 16,6 8 4 14 8 S 60 0,0
27.05.2020 10:00:00 16,1 7,3 20,0 16,6 5 3 10 6 S 60 0,0
27.05.2020 09:00:00 14,4 7,7 20,1 16,6 4 2 8 4 SSE 60 0,0
27.05.2020 08:00:00 12,1 7,8 20,3 16,6 3 2 6 3 E 60 0,0
27.05.2020 07:00:00 9,2 7,5 20,5 16,6 0 0 4 2 N 6 0,0
27.05.2020 06:00:00 9,0 6,8 20,7 16,6 2 1 5 3 N 0 0,0
27.05.2020 05:00:00 9,6 7,2 20,9 16,6 2 1 6 3 NNE 0 0,0
27.05.2020 04:00:00 10,2 7,3 21,0 16,5 4 2 6 3 N 0 0,0
27.05.2020 03:00:00 10,9 7,0 21,3 16,6 0 0 4 2 N 0 0,0
27.05.2020 02:00:00 11,6 7,3 21,4 16,7 2 1 5 3 N 0 0,0
27.05.2020 01:00:00 12,8 7,7 21,6 16,6 2 1 11 6 N 0 0,0
27.05.2020 00:00:00 14,0 7,5 21,7 16,6 2 1 9 5 NW 0 0,0
26.05.2020 23:00:00 14,8 7,8 21,8 16,5 6 3 11 6 W 0 0,0
26.05.2020 22:00:00 16,1 8,3 21,9 16,5 6 3 11 6 WNW 0 0,0
26.05.2020 21:00:00 18,3 8,3 22,0 16,5 3 2 18 10 NW 0 0,0
26.05.2020 20:00:00 21,1 7,3 21,9 16,5 8 4 23 12 SE 28 0,0
26.05.2020 19:00:00 23,2 6,5 21,8 16,5 8 4 22 12 NNW 60 0,0
26.05.2020 18:00:00 23,8 7,0 21,6 16,5 11 6 25 14 SW 48 0,0
26.05.2020 17:00:00 25,0 9,3 21,3 16,5 9 5 24 13 S 60 0,0
26.05.2020 16:00:00 24,4 8,4 20,9 16,5 10 6 27 15 SSE 60 0,0
26.05.2020 15:00:00 23,9 8,3 20,5 16,5 12 7 28 15 SSE 60 0,0
26.05.2020 14:00:00 23,4 9,0 20,1 16,5 9 5 21 12 S 60 0,0
26.05.2020 13:00:00 22,2 8,3 19,8 16,5 9 5 18 10 S 60 0,0
26.05.2020 12:00:00 20,3 7,6 19,6 16,5 6 3 13 7 SW 60 0,0
26.05.2020 11:00:00 18,2 8,7 19,6 16,5 6 4 13 7 S 60 0,0
26.05.2020 10:00:00 16,0 7,0 19,7 16,5 7 4 12 7 S 60 0,0
26.05.2020 09:00:00 14,7 8,0 19,8 16,4 3 2 6 4 E 60 0,0
26.05.2020 08:00:00 12,4 8,5 19,9 16,4 3 2 5 3 E 60 0,0
26.05.2020 07:00:00 9,0 7,4 20,2 16,5 2 1 4 2 N 5 0,0
26.05.2020 06:00:00 8,9 7,2 20,4 16,5 2 1 5 3 NW 0 0,0
26.05.2020 05:00:00 9,2 7,3 20,6 16,4 2 1 5 3 NNW 0 0,0
26.05.2020 04:00:00 9,8 7,2 20,8 16,5 2 1 7 4 WSW 0 0,0
26.05.2020 03:00:00 10,9 7,8 20,9 16,5 4 2 7 4 NNW 0 0,0
26.05.2020 02:00:00 11,5 7,8 21,1 16,4 3 1 4 2 NW 0 0,0
26.05.2020 01:00:00 12,6 7,9 21,3 16,4 2 1 10 5 NW 0 0,0
26.05.2020 00:00:00 13,7 7,9 21,4 16,4 0 0 6 3 N 0 0,0
25.05.2020 23:00:00 14,7 8,0 21,5 16,4 0 0 10 5 N 0 0,0
25.05.2020 22:00:00 15,5 8,2 21,6 16,4 6 4 12 7 W 0 0,0
25.05.2020 21:00:00 17,4 8,3 21,6 16,4 3 1 8 4 W 0 0,0
25.05.2020 20:00:00 20,2 7,5 21,6 16,4 5 3 13 7 WSW 27 0,0
25.05.2020 19:00:00 22,6 6,8 21,4 16,4 6 3 24 13 E 60 0,0
25.05.2020 18:00:00 23,9 6,2 21,2 16,4 4 2 22 12 WNW 60 0,0
25.05.2020 17:00:00 23,9 6,2 20,9 16,4 8 5 24 13 WSW 52 0,0
25.05.2020 16:00:00 23,9 7,1 20,5 16,4 10 5 27 15 S 60 0,0
25.05.2020 15:00:00 23,3 7,8 20,0 16,4 8 4 19 10 S 60 0,0
25.05.2020 14:00:00 22,5 7,1 19,7 16,4 8 4 17 9 S 60 0,0
25.05.2020 13:00:00 21,3 8,2 19,3 16,4 8 4 16 9 S 60 0,0
25.05.2020 12:00:00 19,5 6,2 19,2 16,4 7 4 14 7 S 60 0,0
25.05.2020 11:00:00 17,2 6,1 19,2 16,4 6 3 11 6 S 60 0,0
25.05.2020 10:00:00 15,4 6,1 19,2 16,3 4 2 8 4 E 60 0,0
25.05.2020 09:00:00 12,8 6,6 19,3 16,3 3 1 6 4 E 60 0,0
25.05.2020 08:00:00 10,2 7,1 19,6 16,3 3 1 7 4 NE 60 0,0
25.05.2020 07:00:00 7,1 6,0 19,8 16,4 0 0 4 2 N 1 0,0
25.05.2020 06:00:00 7,2 5,8 20,0 16,3 0 0 4 2 N 0 0,0
25.05.2020 05:00:00 7,7 6,0 20,3 16,3 3 2 7 4 NNE 0 0,0

tt = Température de l'air
td = dewpoint
tt -20cm = Température de l'air -20cm
tt -100cm = Température de l'air -100cm
ff = Vitesse du vent
fx = gusts
dd = Direction du vent
sd = Ensoleillement
rr = Quantités de précipitations

stations d'obs. à proximité